createdAt,value
2022-11-30T00:01:15.584Z,100919.75
2022-11-30T00:03:42.465Z,100917.84
2022-11-30T00:06:10.043Z,100916.98
2022-11-30T00:08:36.765Z,100916.61
2022-11-30T00:11:13.992Z,100911.94
2022-11-30T00:13:40.894Z,100913.42
2022-11-30T00:16:08.271Z,100909.42
2022-11-30T00:18:35.457Z,100915.44
2022-11-30T00:21:02.690Z,100913.06
2022-11-30T00:23:36.651Z,100912.33
2022-11-30T00:26:04.596Z,100912.61
2022-11-30T00:28:31.614Z,100915.46
2022-11-30T00:31:05.957Z,100917.14
2022-11-30T00:33:33.321Z,100915.91
2022-11-30T00:36:01.416Z,100915.02
2022-11-30T00:38:28.304Z,100914.89
2022-11-30T00:40:56.617Z,100910.09
2022-11-30T00:43:23.748Z,100912.04
2022-11-30T00:45:50.516Z,100913.49
2022-11-30T00:48:17.268Z,100910.83
2022-11-30T00:50:44.054Z,100908.09
2022-11-30T00:53:10.715Z,100907.27
2022-11-30T00:55:37.483Z,100900.85
2022-11-30T00:58:04.350Z,100900.52
2022-11-30T01:00:30.988Z,100900.90
2022-11-30T01:02:59.297Z,100895.29
2022-11-30T01:05:26.232Z,100897.04
2022-11-30T01:07:52.908Z,100896.47
2022-11-30T01:10:19.785Z,100892.16
2022-11-30T01:12:46.459Z,100889.77
2022-11-30T01:15:13.155Z,100890.11
2022-11-30T01:17:39.869Z,100877.84
2022-11-30T01:20:08.902Z,100881.85
2022-11-30T01:22:35.713Z,100875.94
2022-11-30T01:25:02.443Z,100882.34
2022-11-30T01:27:29.212Z,100879.88
2022-11-30T01:29:55.924Z,100877.59
2022-11-30T01:32:22.669Z,100876.02
2022-11-30T01:34:49.649Z,100873.88
2022-11-30T01:37:16.423Z,100873.96
2022-11-30T01:39:43.299Z,100873.98
2022-11-30T01:42:17.034Z,100871.01
2022-11-30T01:44:54.489Z,100863.89
2022-11-30T01:47:24.880Z,100867.15
2022-11-30T01:49:57.862Z,100870.45
2022-11-30T01:52:33.156Z,100870.59
2022-11-30T01:55:02.625Z,100880.67
2022-11-30T01:57:51.116Z,100880.27
2022-11-30T02:00:18.349Z,100879.58
2022-11-30T02:02:57.009Z,100879.67
2022-11-30T02:05:24.005Z,100884.65
2022-11-30T02:07:50.901Z,100885.13
2022-11-30T02:10:19.655Z,100889.15
2022-11-30T02:12:55.512Z,100889.96
2022-11-30T02:15:22.837Z,100888.27
2022-11-30T02:18:11.813Z,100893.15
2022-11-30T02:20:44.059Z,100892.91
2022-11-30T02:24:12.509Z,100888.45
2022-11-30T02:26:51.506Z,100887.09
2022-11-30T02:29:22.551Z,100887.63
2022-11-30T02:31:56.967Z,100882.05
2022-11-30T02:34:25.344Z,100875.06
2022-11-30T02:36:52.049Z,100871.20
2022-11-30T02:39:21.191Z,100876.14
2022-11-30T02:41:47.967Z,100882.16
2022-11-30T02:44:14.690Z,100886.48
2022-11-30T02:47:02.313Z,100891.65
2022-11-30T02:49:53.629Z,100889.47
2022-11-30T02:52:22.308Z,100883.10
2022-11-30T02:54:49.288Z,100885.27
2022-11-30T02:57:16.274Z,100887.79
2022-11-30T02:59:42.871Z,100886.23
2022-11-30T03:02:09.632Z,100885.27
2022-11-30T03:04:36.340Z,100887.08
2022-11-30T03:07:03.150Z,100893.08
2022-11-30T03:09:29.772Z,100896.67
2022-11-30T03:11:56.530Z,100897.70
2022-11-30T03:14:23.355Z,100894.77
2022-11-30T03:16:50.049Z,100890.33
2022-11-30T03:19:16.763Z,100884.70
2022-11-30T03:21:43.501Z,100880.48
2022-11-30T03:24:10.305Z,100874.67
2022-11-30T03:26:37.009Z,100875.66
2022-11-30T03:29:03.812Z,100873.79
2022-11-30T03:31:30.531Z,100883.23
2022-11-30T03:33:57.435Z,100878.88
2022-11-30T03:36:24.115Z,100875.36
2022-11-30T03:38:50.900Z,100857.70
2022-11-30T03:41:17.836Z,100865.52
2022-11-30T03:43:45.283Z,100870.70
2022-11-30T03:46:12.271Z,100881.55
2022-11-30T03:48:41.351Z,100884.09
2022-11-30T03:51:08.115Z,100882.91
2022-11-30T03:53:34.831Z,100879.02
2022-11-30T03:56:04.847Z,100888.20
2022-11-30T03:58:31.696Z,100885.24
2022-11-30T04:01:08.583Z,100875.73
2022-11-30T04:03:35.494Z,100867.52
2022-11-30T04:06:02.657Z,100874.25
2022-11-30T04:08:29.461Z,100876.11
2022-11-30T04:10:56.568Z,100872.34
2022-11-30T04:13:23.491Z,100876.02
2022-11-30T04:15:50.721Z,100872.69
2022-11-30T04:18:17.749Z,100876.42
2022-11-30T04:20:44.529Z,100878.30
2022-11-30T04:23:11.669Z,100879.58
2022-11-30T04:25:39.358Z,100880.41
2022-11-30T04:28:06.270Z,100888.23
2022-11-30T04:30:33.251Z,100887.05
2022-11-30T04:32:59.951Z,100882.80
2022-11-30T04:35:26.713Z,100883.33
2022-11-30T04:37:53.429Z,100885.72
2022-11-30T04:40:20.230Z,100881.70
2022-11-30T04:42:46.899Z,100885.81
2022-11-30T04:45:13.674Z,100883.11
2022-11-30T04:47:40.380Z,100883.20
2022-11-30T04:50:07.762Z,100884.50
2022-11-30T04:52:34.713Z,100896.61
2022-11-30T04:57:52.784Z,100894.18
2022-11-30T05:00:19.901Z,100897.85
2022-11-30T05:02:52.488Z,100904.63
2022-11-30T05:05:20.031Z,100904.79
2022-11-30T05:07:49.457Z,100905.58
2022-11-30T05:10:16.504Z,100907.52
2022-11-30T05:12:43.224Z,100908.23
2022-11-30T05:15:10.408Z,100912.27
2022-11-30T05:17:37.173Z,100915.67
2022-11-30T05:20:04.069Z,100919.36
2022-11-30T05:22:30.771Z,100923.23
2022-11-30T05:24:57.494Z,100920.66
2022-11-30T05:27:24.197Z,100922.17
2022-11-30T05:29:50.915Z,100919.14
2022-11-30T05:32:17.706Z,100907.11
2022-11-30T05:34:50.618Z,100910.98
2022-11-30T05:37:18.814Z,100928.98
2022-11-30T05:39:45.694Z,100929.91
2022-11-30T05:42:12.382Z,100928.70
2022-11-30T05:44:39.088Z,100925.81
2022-11-30T05:47:05.981Z,100925.02
2022-11-30T05:49:32.777Z,100926.40
2022-11-30T05:51:59.483Z,100923.85
2022-11-30T05:54:26.216Z,100923.61
2022-11-30T05:56:55.076Z,100927.45
2022-11-30T05:59:22.716Z,100934.05
2022-11-30T06:01:51.975Z,100932.10
2022-11-30T06:04:18.900Z,100933.20
2022-11-30T06:06:45.863Z,100933.75
2022-11-30T06:09:12.669Z,100923.73
2022-11-30T06:11:39.284Z,100924.12
2022-11-30T06:14:06.091Z,100926.34
2022-11-30T06:16:32.788Z,100924.17
2022-11-30T06:18:59.651Z,100924.62
2022-11-30T06:21:26.389Z,100930.20
2022-11-30T06:23:53.103Z,100931.76
2022-11-30T06:26:19.861Z,100930.38
2022-11-30T06:28:48.502Z,100930.77
2022-11-30T06:31:15.885Z,100938.36
2022-11-30T06:33:42.832Z,100943.23
2022-11-30T06:36:09.572Z,100947.27
2022-11-30T06:38:36.400Z,100954.19
2022-11-30T06:41:07.985Z,100956.61
2022-11-30T06:43:38.076Z,100960.62
2022-11-30T06:46:05.475Z,100963.17
2022-11-30T06:48:32.591Z,100962.34
2022-11-30T06:51:00.373Z,100967.48
2022-11-30T06:53:27.474Z,100962.64
2022-11-30T06:55:54.200Z,100967.06
2022-11-30T06:58:20.975Z,100968.89
2022-11-30T07:00:47.838Z,100972.35
2022-11-30T07:03:14.548Z,100973.58
2022-11-30T13:27:18.911Z,100946.50
2022-11-30T13:30:19.403Z,100945.20
2022-11-30T13:32:57.897Z,100940.13
2022-11-30T13:35:28.296Z,100940.02
2022-11-30T13:41:06.517Z,100936.75
2022-11-30T13:43:47.962Z,100934.36
2022-11-30T13:46:16.064Z,100935.88
2022-11-30T13:48:43.899Z,100923.20
2022-11-30T13:51:10.740Z,100928.94
2022-11-30T13:53:38.959Z,100924.77
2022-11-30T13:56:17.871Z,100923.07
2022-11-30T13:59:23.295Z,100917.11
2022-11-30T14:01:51.222Z,100922.10
2022-11-30T14:04:17.956Z,100927.15
2022-11-30T14:06:55.492Z,100926.20
2022-11-30T14:09:37.215Z,100930.22
2022-11-30T14:12:32.602Z,100928.86
2022-11-30T14:15:00.099Z,100932.91
2022-11-30T14:17:27.841Z,100936.71
2022-11-30T14:20:15.560Z,100941.63
2022-11-30T14:22:42.282Z,100942.53
2022-11-30T14:25:13.246Z,100938.73
2022-11-30T14:27:39.980Z,100943.02
2022-11-30T14:30:07.291Z,100936.94
2022-11-30T14:32:38.033Z,100943.43
2022-11-30T14:35:11.758Z,100941.88
2022-11-30T14:37:55.679Z,100947.92
2022-11-30T14:40:23.725Z,100947.66
2022-11-30T14:42:52.726Z,100951.84
2022-11-30T14:45:21.392Z,100946.80
2022-11-30T14:47:51.565Z,100943.69
2022-11-30T14:50:23.679Z,100943.29
2022-11-30T14:53:15.316Z,100944.46
2022-11-30T14:55:53.044Z,100949.44
2022-11-30T14:58:22.951Z,100951.15
2022-11-30T15:00:49.804Z,100952.91
2022-11-30T15:03:28.715Z,100951.42
2022-11-30T15:06:04.908Z,100946.00
2022-11-30T15:08:48.859Z,100953.27
2022-11-30T15:11:16.207Z,100957.69
2022-11-30T15:13:50.377Z,100960.66
2022-11-30T15:16:22.041Z,100962.85
2022-11-30T15:18:49.058Z,100968.45
2022-11-30T15:21:26.661Z,100969.05
2022-11-30T15:23:57.932Z,100972.80
2022-11-30T15:26:36.842Z,100971.35
2022-11-30T15:29:08.953Z,100973.80
2022-11-30T15:31:37.585Z,100972.08
2022-11-30T15:34:05.040Z,100973.48
2022-11-30T15:36:35.888Z,100974.71
2022-11-30T15:39:03.596Z,100971.09
2022-11-30T15:41:30.352Z,100971.96
2022-11-30T15:43:57.308Z,100975.79
2022-11-30T15:46:34.553Z,100976.18
2022-11-30T15:49:16.233Z,100981.73
2022-11-30T15:51:47.328Z,100980.17
2022-11-30T15:54:15.316Z,100979.31
2022-11-30T15:56:42.045Z,100976.52
2022-11-30T15:59:11.866Z,100976.13
2022-11-30T16:02:16.399Z,100970.35
2022-11-30T16:04:58.599Z,100973.39
2022-11-30T16:07:26.712Z,100976.28
2022-11-30T16:10:03.618Z,100972.40
2022-11-30T16:12:30.451Z,100973.35
2022-11-30T16:14:57.215Z,100973.58
2022-11-30T16:17:23.938Z,100970.02
2022-11-30T16:19:50.690Z,100976.38
2022-11-30T16:22:17.383Z,100970.20
2022-11-30T16:24:44.085Z,100975.95
2022-11-30T16:27:18.199Z,100974.52
2022-11-30T16:29:50.476Z,100976.52
2022-11-30T16:32:19.264Z,100976.21
2022-11-30T16:34:47.429Z,100975.00
2022-11-30T16:37:14.745Z,100978.38
2022-11-30T16:39:41.483Z,100980.23
2022-11-30T16:42:11.772Z,100981.30
2022-11-30T16:44:38.490Z,100980.55
2022-11-30T16:47:05.215Z,100978.13
2022-11-30T16:49:33.284Z,100978.64
2022-11-30T16:52:00.029Z,100972.17
2022-11-30T16:54:27.125Z,100975.41
2022-11-30T16:56:53.818Z,100973.23
2022-11-30T16:59:20.537Z,100970.71
2022-11-30T17:01:48.615Z,100972.71
2022-11-30T17:04:22.881Z,100966.17
2022-11-30T17:06:51.079Z,100970.79
2022-11-30T17:09:18.222Z,100971.95
2022-11-30T17:11:45.647Z,100963.97
2022-11-30T17:14:13.078Z,100964.11
2022-11-30T17:16:40.442Z,100962.96
2022-11-30T17:19:07.769Z,100964.77
2022-11-30T17:21:37.305Z,100958.89
2022-11-30T17:24:04.546Z,100964.67
2022-11-30T17:26:31.252Z,100963.18
2022-11-30T17:28:57.989Z,100966.30
2022-11-30T17:31:24.719Z,100965.77
2022-11-30T17:33:51.482Z,100966.77
2022-11-30T17:36:18.971Z,100964.95
2022-11-30T17:38:45.780Z,100961.98
2022-11-30T17:41:18.553Z,100956.79
2022-11-30T17:43:45.788Z,100955.83
2022-11-30T17:46:15.673Z,100952.94
2022-11-30T17:48:43.126Z,100953.53
2022-11-30T17:51:09.989Z,100950.14
2022-11-30T17:53:40.002Z,100952.45
2022-11-30T17:56:07.897Z,100953.77
2022-11-30T17:58:41.445Z,100952.45
2022-11-30T18:01:16.273Z,100949.80
2022-11-30T18:03:43.440Z,100944.42
2022-11-30T18:06:10.164Z,100941.84
2022-11-30T18:08:37.964Z,100941.14
2022-11-30T18:11:09.909Z,100937.61
2022-11-30T18:13:36.762Z,100940.19
2022-11-30T18:16:13.658Z,100939.45
2022-11-30T18:18:45.778Z,100944.13
2022-11-30T18:21:15.863Z,100938.70
2022-11-30T18:23:42.555Z,100939.80
2022-11-30T18:26:12.130Z,100943.00
2022-11-30T18:28:38.847Z,100947.27
2022-11-30T18:31:06.692Z,100942.74
2022-11-30T18:33:34.216Z,100944.15
2022-11-30T18:36:01.195Z,100945.88
2022-11-30T18:38:31.518Z,100947.45
2022-11-30T18:41:01.015Z,100947.30
2022-11-30T18:43:27.804Z,100949.08
2022-11-30T18:45:54.614Z,100949.67
2022-11-30T18:48:21.307Z,100951.75
2022-11-30T18:50:48.050Z,100950.82
2022-11-30T18:53:18.266Z,100951.91
2022-11-30T18:55:45.420Z,100952.20
2022-11-30T18:58:12.173Z,100951.60
2022-11-30T19:00:39.075Z,100955.53
2022-11-30T19:03:07.077Z,100958.63
2022-11-30T22:51:38.158Z,100994.48
2022-11-30T22:54:05.229Z,100994.03
2022-11-30T22:56:33.731Z,100980.64
2022-11-30T22:59:00.919Z,100995.96
2022-11-30T23:01:29.559Z,100996.27
2022-11-30T23:03:57.256Z,100995.78
2022-11-30T23:06:24.149Z,100992.56
2022-11-30T23:08:50.907Z,100993.51
2022-11-30T23:11:20.206Z,100993.31
2022-11-30T23:13:46.941Z,100993.67
2022-11-30T23:16:14.160Z,100989.11
2022-11-30T23:18:43.458Z,100990.06
2022-11-30T23:21:15.040Z,100990.79
2022-11-30T23:23:42.216Z,100992.73
2022-11-30T23:26:12.828Z,100992.61
2022-11-30T23:28:41.203Z,100995.24
2022-11-30T23:31:09.510Z,100995.29
2022-11-30T23:33:37.108Z,100997.34
2022-11-30T23:36:04.987Z,100998.85
2022-11-30T23:38:31.864Z,100994.73
2022-11-30T23:41:05.347Z,100999.72
2022-11-30T23:43:32.848Z,100998.14
2022-11-30T23:45:59.542Z,101002.56
2022-11-30T23:48:26.436Z,101000.88
2022-11-30T23:50:53.682Z,101003.52
2022-11-30T23:53:20.438Z,101004.41
2022-11-30T23:55:47.168Z,101005.10
2022-11-30T23:58:13.855Z,101003.83
